sensor_id;sensor_type;location;lat;lon;timestamp;pressure;altitude;pressure_sealevel;temperature;humidity
72525;BME280;60547;48.502;8.996;2023-04-28T00:02:15;97699.41;;;10.22;80.63
72525;BME280;60547;48.502;8.996;2023-04-28T00:04:41;97687.09;;;10.07;80.62
72525;BME280;60547;48.502;8.996;2023-04-28T00:07:06;97713.47;;;10.31;80.50
72525;BME280;60547;48.502;8.996;2023-04-28T00:09:32;97668.69;;;9.96;81.32
72525;BME280;60547;48.502;8.996;2023-04-28T00:11:58;97662.09;;;9.90;81.60
72525;BME280;60547;48.502;8.996;2023-04-28T00:14:24;97703.31;;;10.08;81.56
72525;BME280;60547;48.502;8.996;2023-04-28T00:16:50;97714.78;;;10.10;81.82
72525;BME280;60547;48.502;8.996;2023-04-28T00:19:15;97702.53;;;10.08;82.21
72525;BME280;60547;48.502;8.996;2023-04-28T00:21:41;97698.28;;;10.03;82.35
72525;BME280;60547;48.502;8.996;2023-04-28T00:24:06;97694.06;;;9.98;82.80
72525;BME280;60547;48.502;8.996;2023-04-28T00:26:32;97704.03;;;9.96;83.43
72525;BME280;60547;48.502;8.996;2023-04-28T00:28:57;97695.53;;;10.03;83.58
72525;BME280;60547;48.502;8.996;2023-04-28T00:31:23;97664.38;;;9.79;83.34
72525;BME280;60547;48.502;8.996;2023-04-28T00:33:48;97711.75;;;10.04;83.46
72525;BME280;60547;48.502;8.996;2023-04-28T00:36:14;97689.22;;;9.86;83.63
72525;BME280;60547;48.502;8.996;2023-04-28T00:38:39;97678.28;;;9.79;83.61
72525;BME280;60547;48.502;8.996;2023-04-28T00:41:05;97651.91;;;9.71;83.60
72525;BME280;60547;48.502;8.996;2023-04-28T00:43:30;97687.75;;;9.82;83.39
72525;BME280;60547;48.502;8.996;2023-04-28T00:45:56;97641.84;;;9.61;83.48
72525;BME280;60547;48.502;8.996;2023-04-28T00:48:22;97642.03;;;9.54;83.75
72525;BME280;60547;48.502;8.996;2023-04-28T00:50:48;97677.56;;;9.91;83.41
72525;BME280;60547;48.502;8.996;2023-04-28T00:53:14;97679.81;;;9.96;83.35
72525;BME280;60547;48.502;8.996;2023-04-28T00:55:40;97704.88;;;10.09;83.22
72525;BME280;60547;48.502;8.996;2023-04-28T00:58:06;97705.31;;;10.08;83.96
72525;BME280;60547;48.502;8.996;2023-04-28T01:00:32;97708.00;;;10.11;83.40
72525;BME280;60547;48.502;8.996;2023-04-28T01:02:58;97709.56;;;10.12;84.08
72525;BME280;60547;48.502;8.996;2023-04-28T01:05:24;97679.31;;;9.85;84.19
72525;BME280;60547;48.502;8.996;2023-04-28T01:07:51;97630.06;;;9.57;84.18
72525;BME280;60547;48.502;8.996;2023-04-28T01:10:16;97700.19;;;10.06;84.39
72525;BME280;60547;48.502;8.996;2023-04-28T01:12:42;97676.78;;;9.91;84.77
72525;BME280;60547;48.502;8.996;2023-04-28T01:15:15;97680.69;;;9.93;84.54
72525;BME280;60547;48.502;8.996;2023-04-28T01:17:41;97662.28;;;9.83;84.44
72525;BME280;60547;48.502;8.996;2023-04-28T01:20:08;97684.31;;;10.07;84.29
72525;BME280;60547;48.502;8.996;2023-04-28T01:22:33;97632.16;;;9.82;84.22
72525;BME280;60547;48.502;8.996;2023-04-28T01:24:59;97651.19;;;9.83;83.93
72525;BME280;60547;48.502;8.996;2023-04-28T01:27:25;97683.75;;;10.12;84.23
72525;BME280;60547;48.502;8.996;2023-04-28T01:29:50;97686.00;;;10.17;84.08
72525;BME280;60547;48.502;8.996;2023-04-28T01:32:16;97622.56;;;9.70;84.35
72525;BME280;60547;48.502;8.996;2023-04-28T01:34:41;97631.91;;;9.76;84.99
72525;BME280;60547;48.502;8.996;2023-04-28T01:37:07;97663.13;;;9.96;84.92
72525;BME280;60547;48.502;8.996;2023-04-28T01:39:32;97652.00;;;9.96;84.79
72525;BME280;60547;48.502;8.996;2023-04-28T01:41:59;97622.13;;;9.71;85.29
72525;BME280;60547;48.502;8.996;2023-04-28T01:44:25;97631.50;;;9.61;85.78
72525;BME280;60547;48.502;8.996;2023-04-28T01:46:50;97616.50;;;9.59;85.25
72525;BME280;60547;48.502;8.996;2023-04-28T01:49:16;97630.63;;;9.64;85.45
72525;BME280;60547;48.502;8.996;2023-04-28T01:51:41;97683.28;;;10.00;85.91
72525;BME280;60547;48.502;8.996;2023-04-28T01:54:07;97622.06;;;9.59;85.97
72525;BME280;60547;48.502;8.996;2023-04-28T01:56:33;97666.44;;;9.91;85.73
72525;BME280;60547;48.502;8.996;2023-04-28T01:58:58;97657.03;;;9.73;86.01
72525;BME280;60547;48.502;8.996;2023-04-28T02:01:24;97636.28;;;9.61;86.36
72525;BME280;60547;48.502;8.996;2023-04-28T02:03:49;97670.44;;;9.90;86.23
72525;BME280;60547;48.502;8.996;2023-04-28T02:06:15;97669.31;;;9.88;86.38
72525;BME280;60547;48.502;8.996;2023-04-28T02:08:40;97674.44;;;9.89;86.35
72525;BME280;60547;48.502;8.996;2023-04-28T02:11:06;97661.06;;;9.84;86.22
72525;BME280;60547;48.502;8.996;2023-04-28T02:13:31;97625.81;;;9.52;86.13
72525;BME280;60547;48.502;8.996;2023-04-28T02:16:00;97666.09;;;9.89;86.13
72525;BME280;60547;48.502;8.996;2023-04-28T02:18:26;97641.66;;;9.68;85.79
72525;BME280;60547;48.502;8.996;2023-04-28T02:20:52;97657.41;;;9.87;85.46
72525;BME280;60547;48.502;8.996;2023-04-28T02:23:17;97631.13;;;9.76;85.60
72525;BME280;60547;48.502;8.996;2023-04-28T02:25:43;97642.66;;;9.90;85.52
72525;BME280;60547;48.502;8.996;2023-04-28T02:28:08;97631.81;;;9.80;86.10
72525;BME280;60547;48.502;8.996;2023-04-28T02:30:33;97646.66;;;9.89;85.95
72525;BME280;60547;48.502;8.996;2023-04-28T02:32:59;97645.09;;;9.88;85.57
72525;BME280;60547;48.502;8.996;2023-04-28T02:35:25;97647.00;;;9.91;85.16
72525;BME280;60547;48.502;8.996;2023-04-28T02:37:50;97649.13;;;10.00;85.31
72525;BME280;60547;48.502;8.996;2023-04-28T02:40:17;97625.47;;;9.79;84.85
72525;BME280;60547;48.502;8.996;2023-04-28T02:42:42;97660.69;;;9.98;85.10
72525;BME280;60547;48.502;8.996;2023-04-28T02:45:08;97659.31;;;9.90;85.43
72525;BME280;60547;48.502;8.996;2023-04-28T02:47:34;97651.78;;;9.91;84.76
72525;BME280;60547;48.502;8.996;2023-04-28T02:49:59;97664.16;;;10.02;84.78
72525;BME280;60547;48.502;8.996;2023-04-28T02:52:25;97623.94;;;9.78;84.75
72525;BME280;60547;48.502;8.996;2023-04-28T02:54:50;97658.94;;;10.04;84.77
72525;BME280;60547;48.502;8.996;2023-04-28T02:57:19;97659.81;;;10.01;85.09
72525;BME280;60547;48.502;8.996;2023-04-28T02:59:45;97644.59;;;9.77;85.44
72525;BME280;60547;48.502;8.996;2023-04-28T03:02:10;97659.91;;;9.98;85.05
72525;BME280;60547;48.502;8.996;2023-04-28T03:04:37;97642.34;;;9.72;85.21
72525;BME280;60547;48.502;8.996;2023-04-28T03:07:02;97645.97;;;9.85;85.01
72525;BME280;60547;48.502;8.996;2023-04-28T03:09:28;97667.03;;;9.99;85.21
72525;BME280;60547;48.502;8.996;2023-04-28T03:11:53;97679.44;;;10.11;85.22
72525;BME280;60547;48.502;8.996;2023-04-28T03:14:19;97649.69;;;9.95;85.19
72525;BME280;60547;48.502;8.996;2023-04-28T03:16:44;97655.53;;;10.13;85.05
72525;BME280;60547;48.502;8.996;2023-04-28T03:19:10;97642.56;;;9.94;85.51
72525;BME280;60547;48.502;8.996;2023-04-28T03:21:35;97661.00;;;10.17;85.90
72525;BME280;60547;48.502;8.996;2023-04-28T03:24:01;97649.19;;;10.13;85.89
72525;BME280;60547;48.502;8.996;2023-04-28T03:26:26;97639.47;;;10.04;85.70
72525;BME280;60547;48.502;8.996;2023-04-28T03:28:52;97640.50;;;10.11;85.67
72525;BME280;60547;48.502;8.996;2023-04-28T03:31:17;97582.78;;;9.73;85.49
72525;BME280;60547;48.502;8.996;2023-04-28T03:33:43;97607.41;;;9.87;86.17
72525;BME280;60547;48.502;8.996;2023-04-28T03:36:11;97640.50;;;10.11;86.02
72525;BME280;60547;48.502;8.996;2023-04-28T03:38:36;97619.34;;;10.00;86.19
72525;BME280;60547;48.502;8.996;2023-04-28T03:41:02;97633.03;;;10.08;86.87
72525;BME280;60547;48.502;8.996;2023-04-28T03:43:27;97626.38;;;10.05;87.11
72525;BME280;60547;48.502;8.996;2023-04-28T03:45:53;97617.78;;;9.99;87.16
72525;BME280;60547;48.502;8.996;2023-04-28T03:48:19;97630.25;;;10.08;86.91
72525;BME280;60547;48.502;8.996;2023-04-28T03:50:44;97626.47;;;10.01;86.74
72525;BME280;60547;48.502;8.996;2023-04-28T03:53:10;97630.84;;;10.15;87.01
72525;BME280;60547;48.502;8.996;2023-04-28T03:55:36;97603.44;;;10.01;87.07
72525;BME280;60547;48.502;8.996;2023-04-28T03:58:01;97577.50;;;9.91;87.34
72525;BME280;60547;48.502;8.996;2023-04-28T04:00:27;97579.47;;;9.78;87.42
72525;BME280;60547;48.502;8.996;2023-04-28T04:02:53;97621.47;;;10.09;86.95
72525;BME280;60547;48.502;8.996;2023-04-28T04:05:18;97603.66;;;9.94;86.84
72525;BME280;60547;48.502;8.996;2023-04-28T04:07:44;97593.88;;;10.02;86.06
72525;BME280;60547;48.502;8.996;2023-04-28T04:10:09;97576.53;;;9.98;86.20
72525;BME280;60547;48.502;8.996;2023-04-28T04:12:35;97580.44;;;10.00;86.43
72525;BME280;60547;48.502;8.996;2023-04-28T04:15:00;97605.38;;;10.17;87.15
72525;BME280;60547;48.502;8.996;2023-04-28T04:17:26;97602.16;;;10.18;86.94
72525;BME280;60547;48.502;8.996;2023-04-28T04:19:52;97617.22;;;10.21;87.25
72525;BME280;60547;48.502;8.996;2023-04-28T04:22:17;97604.53;;;10.20;87.60
72525;BME280;60547;48.502;8.996;2023-04-28T04:24:43;97549.63;;;9.95;87.83
72525;BME280;60547;48.502;8.996;2023-04-28T04:27:08;97572.97;;;9.97;88.62
72525;BME280;60547;48.502;8.996;2023-04-28T04:29:34;97603.72;;;10.19;88.80
72525;BME280;60547;48.502;8.996;2023-04-28T04:31:59;97596.22;;;10.03;89.56
72525;BME280;60547;48.502;8.996;2023-04-28T04:34:25;97597.59;;;10.12;90.75
72525;BME280;60547;48.502;8.996;2023-04-28T04:36:50;97599.91;;;10.13;91.73
72525;BME280;60547;48.502;8.996;2023-04-28T04:39:16;97588.22;;;10.06;91.63
72525;BME280;60547;48.502;8.996;2023-04-28T04:41:41;97579.22;;;10.01;91.28
72525;BME280;60547;48.502;8.996;2023-04-28T04:44:07;97596.59;;;10.18;91.26
72525;BME280;60547;48.502;8.996;2023-04-28T04:46:34;97570.75;;;10.05;91.81
72525;BME280;60547;48.502;8.996;2023-04-28T04:49:03;97596.84;;;10.24;91.94
72525;BME280;60547;48.502;8.996;2023-04-28T04:51:28;97598.41;;;10.25;91.73
72525;BME280;60547;48.502;8.996;2023-04-28T04:53:56;97591.31;;;10.24;91.53
72525;BME280;60547;48.502;8.996;2023-04-28T04:56:22;97598.75;;;10.27;91.77
72525;BME280;60547;48.502;8.996;2023-04-28T04:58:49;97583.56;;;10.15;92.77
72525;BME280;60547;48.502;8.996;2023-04-28T05:01:15;97601.31;;;10.21;93.75
72525;BME280;60547;48.502;8.996;2023-04-28T05:03:40;97582.78;;;10.15;94.36
72525;BME280;60547;48.502;8.996;2023-04-28T05:06:06;97590.81;;;10.13;95.05
72525;BME280;60547;48.502;8.996;2023-04-28T05:08:31;97586.97;;;10.23;94.83
72525;BME280;60547;48.502;8.996;2023-04-28T05:10:57;97589.63;;;10.26;95.20
72525;BME280;60547;48.502;8.996;2023-04-28T05:13:22;97591.97;;;10.28;95.62
72525;BME280;60547;48.502;8.996;2023-04-28T05:15:49;97576.06;;;10.28;95.58
72525;BME280;60547;48.502;8.996;2023-04-28T05:18:14;97579.41;;;10.36;96.00
72525;BME280;60547;48.502;8.996;2023-04-28T05:20:40;97563.50;;;10.24;95.65
72525;BME280;60547;48.502;8.996;2023-04-28T05:23:05;97569.56;;;10.19;93.41
72525;BME280;60547;48.502;8.996;2023-04-28T05:25:31;97589.88;;;10.32;93.93
72525;BME280;60547;48.502;8.996;2023-04-28T05:27:57;97592.97;;;10.34;93.95
72525;BME280;60547;48.502;8.996;2023-04-28T05:30:22;97598.56;;;10.34;94.31
72525;BME280;60547;48.502;8.996;2023-04-28T05:32:48;97588.41;;;10.27;94.55
72525;BME280;60547;48.502;8.996;2023-04-28T05:35:13;97596.22;;;10.32;94.74
72525;BME280;60547;48.502;8.996;2023-04-28T05:37:39;97578.63;;;10.23;95.04
72525;BME280;60547;48.502;8.996;2023-04-28T05:40:08;97584.06;;;10.26;96.05
72525;BME280;60547;48.502;8.996;2023-04-28T05:42:33;97591.44;;;10.33;96.91
72525;BME280;60547;48.502;8.996;2023-04-28T05:44:59;97593.09;;;10.30;96.83
72525;BME280;60547;48.502;8.996;2023-04-28T05:47:26;97591.44;;;10.33;97.18
72525;BME280;60547;48.502;8.996;2023-04-28T05:49:51;97590.53;;;10.36;97.34
72525;BME280;60547;48.502;8.996;2023-04-28T05:52:17;97601.47;;;10.43;97.49
72525;BME280;60547;48.502;8.996;2023-04-28T05:54:42;97589.66;;;10.39;96.54
72525;BME280;60547;48.502;8.996;2023-04-28T05:57:08;97599.69;;;10.49;96.41
72525;BME280;60547;48.502;8.996;2023-04-28T05:59:33;97606.47;;;10.48;95.61
72525;BME280;60547;48.502;8.996;2023-04-28T06:01:59;97590.13;;;10.50;94.63
72525;BME280;60547;48.502;8.996;2023-04-28T06:04:24;97596.69;;;10.56;95.07
72525;BME280;60547;48.502;8.996;2023-04-28T06:06:50;97594.00;;;10.53;96.09
72525;BME280;60547;48.502;8.996;2023-04-28T06:09:16;97595.13;;;10.55;95.71
72525;BME280;60547;48.502;8.996;2023-04-28T06:11:41;97597.56;;;10.53;95.77
72525;BME280;60547;48.502;8.996;2023-04-28T06:14:07;97591.88;;;10.44;95.28
72525;BME280;60547;48.502;8.996;2023-04-28T06:16:32;97594.78;;;10.53;94.78
72525;BME280;60547;48.502;8.996;2023-04-28T06:18:58;97588.56;;;10.49;94.73
72525;BME280;60547;48.502;8.996;2023-04-28T06:21:23;97583.22;;;10.42;95.16
72525;BME280;60547;48.502;8.996;2023-04-28T06:23:49;97586.44;;;10.53;95.48
72525;BME280;60547;48.502;8.996;2023-04-28T06:26:15;97579.97;;;10.44;95.95
72525;BME280;60547;48.502;8.996;2023-04-28T06:28:41;97597.13;;;10.55;96.44
72525;BME280;60547;48.502;8.996;2023-04-28T06:31:07;97587.00;;;10.48;96.53
72525;BME280;60547;48.502;8.996;2023-04-28T06:33:33;97577.53;;;10.46;97.20
72525;BME280;60547;48.502;8.996;2023-04-28T06:35:58;97591.44;;;10.58;97.30
72525;BME280;60547;48.502;8.996;2023-04-28T06:38:24;97588.66;;;10.58;97.57
72525;BME280;60547;48.502;8.996;2023-04-28T06:40:49;97585.00;;;10.61;97.75
72525;BME280;60547;48.502;8.996;2023-04-28T06:43:15;97576.88;;;10.67;96.55
72525;BME280;60547;48.502;8.996;2023-04-28T06:45:40;97561.97;;;10.61;96.56
72525;BME280;60547;48.502;8.996;2023-04-28T06:48:06;97563.63;;;10.58;96.73
72525;BME280;60547;48.502;8.996;2023-04-28T06:50:32;97556.50;;;10.57;95.97
72525;BME280;60547;48.502;8.996;2023-04-28T06:52:57;97571.97;;;10.71;94.86
72525;BME280;60547;48.502;8.996;2023-04-28T06:55:23;97574.66;;;10.75;95.69
72525;BME280;60547;48.502;8.996;2023-04-28T06:57:49;97575.88;;;10.74;97.05
72525;BME280;60547;48.502;8.996;2023-04-28T07:00:15;97559.28;;;10.70;97.36
72525;BME280;60547;48.502;8.996;2023-04-28T07:02:42;97570.97;;;10.78;97.55
72525;BME280;60547;48.502;8.996;2023-04-28T07:05:08;97571.66;;;10.82;97.78
72525;BME280;60547;48.502;8.996;2023-04-28T07:07:34;97562.75;;;10.74;98.11
72525;BME280;60547;48.502;8.996;2023-04-28T07:09:59;97567.19;;;10.84;97.52
72525;BME280;60547;48.502;8.996;2023-04-28T07:12:26;97567.06;;;10.88;97.39
72525;BME280;60547;48.502;8.996;2023-04-28T07:14:51;97555.59;;;10.86;97.82
72525;BME280;60547;48.502;8.996;2023-04-28T07:17:17;97563.94;;;10.98;98.15
72525;BME280;60547;48.502;8.996;2023-04-28T07:19:43;97565.72;;;11.05;98.21
72525;BME280;60547;48.502;8.996;2023-04-28T07:22:08;97557.81;;;11.04;98.90
72525;BME280;60547;48.502;8.996;2023-04-28T07:24:33;97554.00;;;11.10;99.24
72525;BME280;60547;48.502;8.996;2023-04-28T07:26:59;97549.88;;;11.15;98.89
72525;BME280;60547;48.502;8.996;2023-04-28T07:29:25;97564.00;;;11.20;98.19
72525;BME280;60547;48.502;8.996;2023-04-28T07:31:53;97558.00;;;11.22;98.13
72525;BME280;60547;48.502;8.996;2023-04-28T07:34:18;97558.97;;;11.28;96.85
72525;BME280;60547;48.502;8.996;2023-04-28T07:36:43;97557.44;;;11.27;96.88
72525;BME280;60547;48.502;8.996;2023-04-28T07:39:09;97561.31;;;11.29;96.25
72525;BME280;60547;48.502;8.996;2023-04-28T07:41:36;97550.75;;;11.24;95.80
72525;BME280;60547;48.502;8.996;2023-04-28T07:44:02;97560.09;;;11.30;95.52
72525;BME280;60547;48.502;8.996;2023-04-28T07:46:29;97558.88;;;11.31;96.40
72525;BME280;60547;48.502;8.996;2023-04-28T07:48:54;97562.44;;;11.32;97.36
72525;BME280;60547;48.502;8.996;2023-04-28T07:51:20;97548.28;;;11.26;97.69
72525;BME280;60547;48.502;8.996;2023-04-28T07:53:45;97553.16;;;11.35;97.77
72525;BME280;60547;48.502;8.996;2023-04-28T07:56:11;97547.72;;;11.31;98.61
72525;BME280;60547;48.502;8.996;2023-04-28T07:58:37;97566.53;;;11.40;98.80
72525;BME280;60547;48.502;8.996;2023-04-28T08:01:02;97569.63;;;11.42;98.44
72525;BME280;60547;48.502;8.996;2023-04-28T08:03:28;97579.44;;;11.47;98.39
72525;BME280;60547;48.502;8.996;2023-04-28T08:05:53;97567.63;;;11.43;100.00
72525;BME280;60547;48.502;8.996;2023-04-28T08:08:19;97567.50;;;11.46;100.00
72525;BME280;60547;48.502;8.996;2023-04-28T08:10:45;97566.88;;;11.64;100.00
72525;BME280;60547;48.502;8.996;2023-04-28T08:13:10;97575.44;;;11.70;100.00
72525;BME280;60547;48.502;8.996;2023-04-28T08:15:36;97573.75;;;11.72;100.00
72525;BME280;60547;48.502;8.996;2023-04-28T08:18:01;97580.09;;;11.85;100.00
72525;BME280;60547;48.502;8.996;2023-04-28T08:20:27;97582.44;;;11.87;100.00
72525;BME280;60547;48.502;8.996;2023-04-28T08:22:53;97586.53;;;11.95;100.00
72525;BME280;60547;48.502;8.996;2023-04-28T08:25:19;97593.41;;;12.03;100.00
72525;BME280;60547;48.502;8.996;2023-04-28T08:27:44;97590.59;;;12.03;100.00
72525;BME280;60547;48.502;8.996;2023-04-28T08:30:10;97595.47;;;12.12;100.00
72525;BME280;60547;48.502;8.996;2023-04-28T08:32:35;97593.97;;;12.20;100.00
72525;BME280;60547;48.502;8.996;2023-04-28T08:35:01;97588.78;;;12.31;100.00
72525;BME280;60547;48.502;8.996;2023-04-28T08:37:27;97586.69;;;12.44;100.00
72525;BME280;60547;48.502;8.996;2023-04-28T08:39:53;97582.00;;;12.41;100.00
72525;BME280;60547;48.502;8.996;2023-04-28T08:42:33;97597.31;;;12.58;100.00
72525;BME280;60547;48.502;8.996;2023-04-28T08:44:59;97599.59;;;12.51;100.00
72525;BME280;60547;48.502;8.996;2023-04-28T08:47:32;97609.25;;;12.59;100.00
72525;BME280;60547;48.502;8.996;2023-04-28T08:50:03;97608.97;;;12.66;100.00
72525;BME280;60547;48.502;8.996;2023-04-28T08:52:29;97615.31;;;12.67;100.00
72525;BME280;60547;48.502;8.996;2023-04-28T08:54:58;97611.94;;;12.72;100.00
72525;BME280;60547;48.502;8.996;2023-04-28T08:57:26;97619.75;;;12.86;100.00
72525;BME280;60547;48.502;8.996;2023-04-28T08:59:52;97614.81;;;12.90;99.70
72525;BME280;60547;48.502;8.996;2023-04-28T09:02:18;97623.84;;;12.94;100.00
72525;BME280;60547;48.502;8.996;2023-04-28T09:04:46;97615.00;;;12.96;99.44
72525;BME280;60547;48.502;8.996;2023-04-28T09:07:12;97620.56;;;12.96;100.00
72525;BME280;60547;48.502;8.996;2023-04-28T09:09:38;97626.81;;;13.00;99.53
72525;BME280;60547;48.502;8.996;2023-04-28T09:12:06;97628.50;;;12.97;100.00
72525;BME280;60547;48.502;8.996;2023-04-28T09:14:33;97634.09;;;12.97;99.93
72525;BME280;60547;48.502;8.996;2023-04-28T09:17:00;97623.47;;;12.83;100.00
72525;BME280;60547;48.502;8.996;2023-04-28T09:19:33;97626.72;;;12.81;100.00
72525;BME280;60547;48.502;8.996;2023-04-28T09:21:58;97638.25;;;12.92;100.00
72525;BME280;60547;48.502;8.996;2023-04-28T09:26:50;97623.97;;;12.90;100.00
72525;BME280;60547;48.502;8.996;2023-04-28T09:29:16;97632.56;;;13.05;100.00
72525;BME280;60547;48.502;8.996;2023-04-28T09:31:41;97627.94;;;13.11;100.00
72525;BME280;60547;48.502;8.996;2023-04-28T09:34:08;97632.66;;;13.23;100.00
72525;BME280;60547;48.502;8.996;2023-04-28T09:36:33;97636.72;;;13.32;100.00
72525;BME280;60547;48.502;8.996;2023-04-28T09:38:59;97642.22;;;13.53;100.00
72525;BME280;60547;48.502;8.996;2023-04-28T09:41:42;97635.84;;;13.62;100.00
72525;BME280;60547;48.502;8.996;2023-04-28T09:44:17;97640.84;;;13.76;100.00
72525;BME280;60547;48.502;8.996;2023-04-28T09:46:44;97634.34;;;13.88;100.00
72525;BME280;60547;48.502;8.996;2023-04-28T09:49:10;97643.97;;;14.06;98.12
72525;BME280;60547;48.502;8.996;2023-04-28T09:51:36;97628.72;;;14.16;98.22
72525;BME280;60547;48.502;8.996;2023-04-28T09:54:02;97634.63;;;14.36;98.20
72525;BME280;60547;48.502;8.996;2023-04-28T09:56:28;97629.97;;;14.51;99.90
72525;BME280;60547;48.502;8.996;2023-04-28T09:58:59;97638.34;;;14.61;97.36
72525;BME280;60547;48.502;8.996;2023-04-28T10:01:36;97626.19;;;14.64;95.57
72525;BME280;60547;48.502;8.996;2023-04-28T10:04:06;97635.22;;;14.59;94.55
72525;BME280;60547;48.502;8.996;2023-04-28T10:06:35;97639.56;;;14.69;96.42
72525;BME280;60547;48.502;8.996;2023-04-28T10:09:01;97636.13;;;14.74;94.12
72525;BME280;60547;48.502;8.996;2023-04-28T10:11:27;97630.84;;;14.67;93.87
72525;BME280;60547;48.502;8.996;2023-04-28T10:13:53;97641.44;;;14.72;94.30
72525;BME280;60547;48.502;8.996;2023-04-28T10:16:19;97625.56;;;14.69;94.48
72525;BME280;60547;48.502;8.996;2023-04-28T10:18:45;97644.50;;;14.83;94.40
72525;BME280;60547;48.502;8.996;2023-04-28T10:21:15;97629.06;;;14.97;93.73
72525;BME280;60547;48.502;8.996;2023-04-28T10:27:05;97629.72;;;15.58;92.68
72525;BME280;60547;48.502;8.996;2023-04-28T10:29:32;97631.69;;;15.66;90.89
72525;BME280;60547;48.502;8.996;2023-04-28T10:34:46;97632.66;;;15.54;88.32
72525;BME280;60547;48.502;8.996;2023-04-28T10:37:13;97625.38;;;15.47;88.85
72525;BME280;60547;48.502;8.996;2023-04-28T10:42:51;97622.88;;;15.49;90.42
72525;BME280;60547;48.502;8.996;2023-04-28T10:45:42;97634.41;;;15.75;88.92
72525;BME280;60547;48.502;8.996;2023-04-28T10:48:02;97627.50;;;15.86;85.78
72525;BME280;60547;48.502;8.996;2023-04-28T10:50:30;97618.72;;;15.93;86.45
72525;BME280;60547;48.502;8.996;2023-04-28T10:52:56;97629.34;;;16.27;86.25
72525;BME280;60547;48.502;8.996;2023-04-28T11:00:41;97623.69;;;16.81;80.96
72525;BME280;60547;48.502;8.996;2023-04-28T11:03:06;97617.28;;;16.80;80.16
72525;BME280;60547;48.502;8.996;2023-04-28T11:05:32;97612.72;;;16.68;79.73
72525;BME280;60547;48.502;8.996;2023-04-28T11:13:34;97620.09;;;16.80;79.71
72525;BME280;60547;48.502;8.996;2023-04-28T11:16:04;97621.06;;;16.77;79.02
72525;BME280;60547;48.502;8.996;2023-04-28T11:18:52;97613.13;;;16.75;81.73
72525;BME280;60547;48.502;8.996;2023-04-28T11:21:19;97610.09;;;16.64;79.74
72525;BME280;60547;48.502;8.996;2023-04-28T11:23:46;97614.28;;;16.69;79.48
72525;BME280;60547;48.502;8.996;2023-04-28T11:26:12;97620.78;;;16.75;79.46
72525;BME280;60547;48.502;8.996;2023-04-28T11:28:55;97617.00;;;16.78;77.08
72525;BME280;60547;48.502;8.996;2023-04-28T11:31:23;97608.72;;;17.04;76.87
72525;BME280;60547;48.502;8.996;2023-04-28T11:34:00;97610.66;;;17.48;76.95
72525;BME280;60547;48.502;8.996;2023-04-28T11:36:30;97609.75;;;17.56;74.55
72525;BME280;60547;48.502;8.996;2023-04-28T11:38:57;97597.22;;;17.57;76.18
72525;BME280;60547;48.502;8.996;2023-04-28T11:41:23;97612.97;;;17.49;76.28
72525;BME280;60547;48.502;8.996;2023-04-28T11:43:49;97602.53;;;17.35;73.90
72525;BME280;60547;48.502;8.996;2023-04-28T11:46:20;97615.19;;;17.25;73.20
72525;BME280;60547;48.502;8.996;2023-04-28T11:48:46;97608.13;;;17.15;73.54
72525;BME280;60547;48.502;8.996;2023-04-28T11:51:35;97595.19;;;16.88;75.65
72525;BME280;60547;48.502;8.996;2023-04-28T11:54:01;97605.72;;;16.93;76.20
72525;BME280;60547;48.502;8.996;2023-04-28T11:56:28;97604.84;;;17.01;78.39
72525;BME280;60547;48.502;8.996;2023-04-28T11:59:01;97584.97;;;17.05;77.63
72525;BME280;60547;48.502;8.996;2023-04-28T12:01:29;97591.75;;;17.13;76.96
72525;BME280;60547;48.502;8.996;2023-04-28T12:03:55;97605.31;;;17.15;76.04
72525;BME280;60547;48.502;8.996;2023-04-28T12:06:21;97591.25;;;17.15;76.38
72525;BME280;60547;48.502;8.996;2023-04-28T12:08:48;97592.09;;;17.21;75.01
72525;BME280;60547;48.502;8.996;2023-04-28T12:11:13;97592.84;;;17.36;75.01
72525;BME280;60547;48.502;8.996;2023-04-28T12:13:40;97596.84;;;17.50;74.26
72525;BME280;60547;48.502;8.996;2023-04-28T12:16:06;97586.09;;;17.48;72.41
72525;BME280;60547;48.502;8.996;2023-04-28T12:18:34;97610.31;;;17.60;73.49
72525;BME280;60547;48.502;8.996;2023-04-28T12:21:01;97602.44;;;17.64;72.00
72525;BME280;60547;48.502;8.996;2023-04-28T12:23:34;97606.22;;;17.61;72.10
72525;BME280;60547;48.502;8.996;2023-04-28T12:26:01;97602.69;;;17.46;73.04
72525;BME280;60547;48.502;8.996;2023-04-28T12:28:40;97617.19;;;17.59;73.12
72525;BME280;60547;48.502;8.996;2023-04-28T12:31:07;97617.97;;;17.60;71.94
72525;BME280;60547;48.502;8.996;2023-04-28T12:33:33;97621.13;;;17.47;73.59
72525;BME280;60547;48.502;8.996;2023-04-28T12:36:05;97596.91;;;17.35;72.59
72525;BME280;60547;48.502;8.996;2023-04-28T12:38:31;97609.38;;;17.49;73.36
72525;BME280;60547;48.502;8.996;2023-04-28T12:40:57;97610.84;;;17.44;72.13
72525;BME280;60547;48.502;8.996;2023-04-28T12:43:23;97600.28;;;17.39;72.76
72525;BME280;60547;48.502;8.996;2023-04-28T12:45:50;97605.34;;;17.35;72.64
72525;BME280;60547;48.502;8.996;2023-04-28T12:48:17;97609.66;;;17.51;72.43
72525;BME280;60547;48.502;8.996;2023-04-28T12:50:42;97599.59;;;17.44;73.28
72525;BME280;60547;48.502;8.996;2023-04-28T12:53:08;97593.91;;;17.38;73.45
72525;BME280;60547;48.502;8.996;2023-04-28T12:55:33;97595.94;;;17.38;73.99
72525;BME280;60547;48.502;8.996;2023-04-28T12:57:59;97596.84;;;17.50;72.58
72525;BME280;60547;48.502;8.996;2023-04-28T13:00:24;97598.34;;;17.45;72.34
72525;BME280;60547;48.502;8.996;2023-04-28T13:02:50;97598.66;;;17.32;73.27
72525;BME280;60547;48.502;8.996;2023-04-28T13:05:17;97581.47;;;17.65;72.41
72525;BME280;60547;48.502;8.996;2023-04-28T13:07:43;97580.50;;;17.89;72.22
72525;BME280;60547;48.502;8.996;2023-04-28T13:10:09;97591.16;;;18.25;72.44
72525;BME280;60547;48.502;8.996;2023-04-28T13:12:35;97580.53;;;18.15;69.14
72525;BME280;60547;48.502;8.996;2023-04-28T13:15:01;97589.09;;;18.26;68.98
72525;BME280;60547;48.502;8.996;2023-04-28T13:17:27;97574.13;;;18.14;69.04
72525;BME280;60547;48.502;8.996;2023-04-28T13:19:52;97572.75;;;17.84;69.31